Time;durP1;ratioP1;P1;durP2;ratioP2;P2;SDS_P1;SDS_P2;PMS_P1;PMS_P2;Temp;Humidity;BMP_temperature;BMP_pressure;BME280_temperature;BME280_humidity;BME280_pressure;Samples;Min_cycle;Max_cycle;Signal;HPM_P1;HPM_P2
2022/03/01 00:00:01;;;;;;;16.27;13.13;;;4.60;99.90;;;;;;5114801;28;20661;-59
2022/03/01 00:02:26;;;;;;;15.75;13.13;;;4.70;99.90;;;;;;5114594;27;20278;-60
2022/03/01 00:04:53;;;;;;;17.60;13.13;;;4.70;99.90;;;;;;5114833;28;20219;-58
2022/03/01 00:07:19;;;;;;;17.92;12.35;;;4.70;99.90;;;;;;5114621;28;20183;-58
2022/03/01 00:09:44;;;;;;;15.55;12.27;;;4.70;99.90;;;;;;5114717;27;20542;-58
2022/03/01 00:12:10;;;;;;;15.80;12.38;;;4.80;99.90;;;;;;5114736;28;20177;-58
2022/03/01 00:14:36;;;;;;;17.85;13.90;;;4.80;99.90;;;;;;5114451;28;20188;-58
2022/03/01 00:17:02;;;;;;;16.85;13.15;;;4.80;99.90;;;;;;5114555;28;20705;-58
2022/03/01 00:19:29;;;;;;;14.15;11.68;;;4.70;99.90;;;;;;5112925;28;20203;-59
2022/03/01 00:21:56;;;;;;;15.65;12.50;;;4.80;99.90;;;;;;5114141;28;20199;-58
2022/03/01 00:24:21;;;;;;;15.68;12.30;;;4.90;99.90;;;;;;5114139;28;20176;-58
2022/03/01 00:26:47;;;;;;;13.52;11.43;;;5.00;99.90;;;;;;5113098;28;20653;-59
2022/03/01 00:29:13;;;;;;;14.52;11.85;;;5.10;99.90;;;;;;5114490;28;20203;-58
2022/03/01 00:31:38;;;;;;;15.65;11.13;;;5.00;99.90;;;;;;5114158;28;20225;-59
2022/03/01 00:34:04;;;;;;;15.18;11.43;;;5.00;99.90;;;;;;5114196;28;20223;-58
2022/03/01 00:36:30;;;;;;;15.15;12.82;;;5.00;99.90;;;;;;5114109;28;20181;-58
2022/03/01 00:38:56;;;;;;;14.55;11.52;;;4.90;99.90;;;;;;5114130;28;20663;-57
2022/03/01 00:41:21;;;;;;;15.00;12.88;;;4.90;99.90;;;;;;5114234;28;20230;-58
2022/03/01 00:43:47;;;;;;;14.30;11.77;;;4.80;99.90;;;;;;5114071;28;20629;-58
2022/03/01 00:46:13;;;;;;;15.88;12.32;;;4.80;99.90;;;;;;5114090;28;20177;-58
2022/03/01 00:48:38;;;;;;;15.32;12.45;;;4.80;99.90;;;;;;5113971;28;20224;-58
2022/03/01 00:51:04;;;;;;;14.45;11.90;;;4.70;99.90;;;;;;5113889;28;20173;-58
2022/03/01 00:53:30;;;;;;;15.15;12.02;;;4.70;99.90;;;;;;5113852;28;20184;-58
2022/03/01 00:55:55;;;;;;;15.82;12.75;;;4.60;99.90;;;;;;5113870;28;20621;-58
2022/03/01 00:58:21;;;;;;;14.20;11.98;;;4.60;99.90;;;;;;5113340;28;20538;-59
2022/03/01 01:00:47;;;;;;;14.75;12.80;;;4.60;99.90;;;;;;5113675;28;20683;-59
2022/03/01 01:03:12;;;;;;;14.82;11.73;;;4.50;99.90;;;;;;5113541;28;20195;-58
2022/03/01 01:05:38;;;;;;;15.13;12.15;;;4.40;99.90;;;;;;5113889;28;20287;-59
2022/03/01 01:08:04;;;;;;;15.20;11.88;;;4.50;99.90;;;;;;5112570;28;20204;-58
2022/03/01 01:10:30;;;;;;;16.23;11.85;;;4.50;99.90;;;;;;5113784;28;20180;-58
2022/03/01 01:12:56;;;;;;;14.45;11.77;;;4.50;99.90;;;;;;5114057;28;20180;-58
2022/03/01 01:15:21;;;;;;;15.65;11.80;;;4.50;99.90;;;;;;5114018;28;20204;-57
2022/03/01 01:17:47;;;;;;;14.65;11.55;;;4.50;99.90;;;;;;5113935;28;20212;-58
2022/03/01 01:20:15;;;;;;;17.23;12.30;;;4.50;99.90;;;;;;5113858;28;20207;-59
2022/03/01 01:22:40;;;;;;;15.75;12.27;;;4.40;99.90;;;;;;5113936;28;20257;-59
2022/03/01 01:25:10;;;;;;;14.55;12.50;;;4.40;99.90;;;;;;5113914;28;20176;-58
2022/03/01 01:27:37;;;;;;;15.75;12.32;;;4.30;99.90;;;;;;5113792;28;20176;-58
2022/03/01 01:30:05;;;;;;;16.98;12.75;;;4.30;99.90;;;;;;5113781;28;20176;-58
2022/03/01 01:32:31;;;;;;;15.60;12.48;;;4.20;99.90;;;;;;5113630;28;20205;-58
2022/03/01 01:34:56;;;;;;;14.82;12.27;;;4.20;99.90;;;;;;5112961;28;20176;-58
2022/03/01 01:37:22;;;;;;;15.15;12.88;;;4.10;99.90;;;;;;5113845;28;20626;-58
2022/03/01 01:39:48;;;;;;;16.02;12.02;;;4.10;99.90;;;;;;5113799;28;20216;-58
2022/03/01 01:42:14;;;;;;;16.45;13.10;;;4.10;99.90;;;;;;5113577;28;20196;-59
2022/03/01 01:44:42;;;;;;;15.13;11.93;;;4.10;99.90;;;;;;5113528;28;20181;-59
2022/03/01 01:47:08;;;;;;;14.45;12.15;;;4.20;99.90;;;;;;5113442;28;20179;-58
2022/03/01 01:49:34;;;;;;;16.42;12.40;;;4.10;99.90;;;;;;5113380;28;20188;-58
2022/03/01 01:51:59;;;;;;;16.05;12.52;;;4.20;99.90;;;;;;5113734;28;20637;-58
2022/03/01 01:54:25;;;;;;;15.55;12.13;;;4.30;99.90;;;;;;5112327;28;20176;-58
2022/03/01 01:56:51;;;;;;;16.58;11.88;;;4.40;99.90;;;;;;5113418;28;20717;-58
2022/03/01 01:59:16;;;;;;;14.88;11.00;;;4.40;99.90;;;;;;5112241;28;20267;-58
2022/03/01 02:01:42;;;;;;;14.90;11.85;;;4.50;99.90;;;;;;5113274;28;20707;-58
2022/03/01 02:04:08;;;;;;;13.80;11.70;;;4.50;99.90;;;;;;5113548;28;20202;-58
2022/03/01 02:06:51;;;;;;;13.75;11.32;;;4.50;99.90;;;;;;5113619;28;20663;-58
2022/03/01 02:09:16;;;;;;;14.20;11.50;;;4.50;99.90;;;;;;5113402;28;20173;-58
2022/03/01 02:11:42;;;;;;;14.63;11.57;;;4.40;99.90;;;;;;5117155;28;20180;-58
2022/03/01 02:14:08;;;;;;;12.82;11.43;;;4.40;99.90;;;;;;5117285;28;20237;-59
2022/03/01 02:16:35;;;;;;;16.33;12.70;;;4.40;99.90;;;;;;5117389;28;20179;-58
2022/03/01 02:19:00;;;;;;;14.85;11.93;;;4.30;99.90;;;;;;5117260;28;20192;-58
2022/03/01 02:21:26;;;;;;;17.77;13.38;;;4.30;99.90;;;;;;5116451;28;20197;-59
2022/03/01 02:23:52;;;;;;;16.42;12.15;;;4.30;99.90;;;;;;5117293;28;20212;-59
2022/03/01 02:26:17;;;;;;;14.82;12.63;;;4.30;99.90;;;;;;5117251;28;20655;-58
2022/03/01 02:28:43;;;;;;;15.73;12.35;;;4.20;99.90;;;;;;5117088;28;20177;-58
2022/03/01 02:31:08;;;;;;;14.18;11.40;;;4.30;99.90;;;;;;5117314;28;20255;-58
2022/03/01 02:33:34;;;;;;;14.27;11.98;;;4.30;99.90;;;;;;5117204;28;20211;-58
2022/03/01 02:36:00;;;;;;;14.75;11.98;;;4.30;99.90;;;;;;5117046;28;20176;-58
2022/03/01 02:38:25;;;;;;;16.83;11.98;;;4.40;99.90;;;;;;5116902;28;20226;-58
2022/03/01 02:40:51;;;;;;;16.60;11.50;;;4.40;99.90;;;;;;5116907;28;20215;-58
2022/03/01 02:43:16;;;;;;;16.30;12.10;;;4.40;99.90;;;;;;5116876;28;20650;-59
2022/03/01 02:45:45;;;;;;;17.10;11.88;;;4.40;99.90;;;;;;5116827;28;20224;-59
2022/03/01 02:48:11;;;;;;;14.88;11.43;;;4.40;99.90;;;;;;5116918;28;20259;-58
2022/03/01 02:50:37;;;;;;;15.15;11.73;;;4.30;99.90;;;;;;5116952;28;20278;-58
2022/03/01 02:53:03;;;;;;;15.82;11.77;;;4.30;99.90;;;;;;5116739;28;20209;-58
2022/03/01 02:55:28;;;;;;;16.38;12.27;;;4.30;99.90;;;;;;5116517;28;20179;-58
2022/03/01 02:57:54;;;;;;;16.25;12.15;;;4.20;99.90;;;;;;5116550;28;20202;-58
2022/03/01 03:00:20;;;;;;;16.90;12.68;;;4.30;99.90;;;;;;5116799;28;20654;-58
2022/03/01 03:02:46;;;;;;;18.88;12.48;;;4.20;99.90;;;;;;5116570;28;20208;-59
2022/03/01 03:05:12;;;;;;;15.95;11.75;;;4.10;99.90;;;;;;5116666;28;20200;-59
2022/03/01 03:07:37;;;;;;;16.67;11.75;;;4.10;99.90;;;;;;5116463;28;20181;-58
2022/03/01 03:10:04;;;;;;;15.35;12.07;;;4.10;99.90;;;;;;5116415;28;20572;-58
2022/03/01 03:12:30;;;;;;;17.33;12.45;;;4.00;99.90;;;;;;5116206;28;20323;-58
2022/03/01 03:14:56;;;;;;;17.10;12.45;;;3.90;99.90;;;;;;5116161;28;20653;-58
2022/03/01 03:17:22;;;;;;;16.58;11.73;;;3.90;99.90;;;;;;5115168;28;20176;-58
2022/03/01 03:19:48;;;;;;;18.10;12.52;;;3.90;99.90;;;;;;5116027;28;20204;-58
2022/03/01 03:22:14;;;;;;;19.15;12.02;;;4.00;99.90;;;;;;5115200;28;20208;-59
2022/03/01 03:24:40;;;;;;;16.08;12.60;;;4.00;99.90;;;;;;5116098;28;20275;-58
2022/03/01 03:27:06;;;;;;;15.43;11.70;;;4.00;99.90;;;;;;5115947;28;20207;-58
2022/03/01 03:29:31;;;;;;;15.68;12.60;;;4.00;99.90;;;;;;5116225;28;20226;-58
2022/03/01 03:31:57;;;;;;;15.07;11.48;;;4.10;99.90;;;;;;5116089;28;20184;-58
2022/03/01 03:34:24;;;;;;;18.83;12.70;;;4.10;99.90;;;;;;5116087;27;20184;-58
2022/03/01 03:36:50;;;;;;;18.20;12.45;;;4.20;99.90;;;;;;5115884;28;20172;-58
2022/03/01 03:39:16;;;;;;;16.40;11.82;;;4.20;99.90;;;;;;5114666;28;20180;-58
2022/03/01 03:41:42;;;;;;;17.50;12.20;;;4.20;99.90;;;;;;5115542;28;20205;-59
2022/03/01 03:44:08;;;;;;;16.92;12.50;;;4.30;99.90;;;;;;5115873;28;20181;-58
2022/03/01 03:46:34;;;;;;;17.20;12.25;;;4.30;99.90;;;;;;5115806;28;20571;-58
2022/03/01 03:49:00;;;;;;;17.23;11.63;;;4.40;99.90;;;;;;5115640;28;20208;-58
2022/03/01 03:51:26;;;;;;;17.67;12.75;;;4.40;99.90;;;;;;5115472;28;20219;-58
2022/03/01 03:53:51;;;;;;;18.08;12.48;;;4.40;99.90;;;;;;5115836;28;20188;-58
2022/03/01 03:56:17;;;;;;;19.10;13.20;;;4.40;99.90;;;;;;5115408;28;20202;-58
2022/03/01 03:58:43;;;;;;;15.80;11.57;;;4.50;99.90;;;;;;5115620;28;20205;-58
2022/03/01 04:01:09;;;;;;;15.75;11.88;;;4.50;99.90;;;;;;5115214;28;20180;-58
2022/03/01 04:03:35;;;;;;;17.50;11.60;;;4.50;99.90;;;;;;5115299;28;20225;-58
2022/03/01 04:06:01;;;;;;;17.00;12.23;;;4.50;99.90;;;;;;5115355;28;20173;-58
2022/03/01 04:08:27;;;;;;;15.90;11.52;;;4.50;99.90;;;;;;5115307;28;20180;-58
2022/03/01 04:10:54;;;;;;;19.80;11.65;;;4.40;99.90;;;;;;5114987;28;20187;-59
2022/03/01 04:13:20;;;;;;;15.60;11.40;;;4.40;99.90;;;;;;5115338;28;20168;-58
2022/03/01 04:15:45;;;;;;;19.53;12.43;;;4.40;99.90;;;;;;5115209;28;20177;-58
2022/03/01 04:18:11;;;;;;;16.35;11.77;;;4.50;99.90;;;;;;5115120;28;20298;-58
2022/03/01 04:20:37;;;;;;;18.42;11.80;;;4.50;99.90;;;;;;5114894;28;20219;-58
2022/03/01 04:23:02;;;;;;;14.50;11.32;;;4.50;99.90;;;;;;5114806;28;20716;-58
2022/03/01 04:25:28;;;;;;;14.68;11.77;;;4.50;99.90;;;;;;5114863;28;20684;-58
2022/03/01 04:27:54;;;;;;;15.70;11.60;;;4.50;99.90;;;;;;5115055;28;20169;-58
2022/03/01 04:30:20;;;;;;;14.45;11.07;;;4.60;99.90;;;;;;5113622;28;20272;-58
2022/03/01 04:32:45;;;;;;;14.95;11.85;;;4.70;99.90;;;;;;5114755;28;20303;-58
2022/03/01 04:35:12;;;;;;;16.30;12.05;;;4.70;99.90;;;;;;5114798;28;20177;-58
2022/03/01 04:37:39;;;;;;;17.50;11.43;;;4.80;99.90;;;;;;5113548;28;20180;-58
2022/03/01 04:40:06;;;;;;;17.45;11.95;;;4.80;99.90;;;;;;5114575;28;20173;-59
2022/03/01 04:42:32;;;;;;;16.35;11.93;;;4.80;99.90;;;;;;5113424;28;20211;-58
2022/03/01 04:44:59;;;;;;;12.95;11.20;;;4.80;99.90;;;;;;5114642;28;20675;-58
2022/03/01 04:47:25;;;;;;;13.93;10.63;;;4.80;99.90;;;;;;5114583;28;20656;-58
2022/03/01 04:49:50;;;;;;;16.02;11.00;;;4.90;99.90;;;;;;5114788;28;20177;-58
2022/03/01 04:52:16;;;;;;;13.40;11.02;;;4.90;99.90;;;;;;5114407;28;20184;-58
2022/03/01 04:54:42;;;;;;;14.68;10.98;;;4.90;99.90;;;;;;5114244;28;20188;-58
2022/03/01 04:57:07;;;;;;;12.45;10.60;;;4.90;99.90;;;;;;5114539;28;20180;-58
2022/03/01 04:59:33;;;;;;;16.67;11.45;;;5.00;99.90;;;;;;5114524;28;20196;-59
2022/03/01 05:01:59;;;;;;;14.00;11.23;;;5.00;99.90;;;;;;5114251;28;20196;-58
2022/03/01 05:04:25;;;;;;;16.05;11.13;;;5.00;99.90;;;;;;5114057;28;20660;-58
2022/03/01 05:06:51;;;;;;;13.80;11.15;;;5.00;99.90;;;;;;5114145;27;20173;-58
2022/03/01 05:09:17;;;;;;;14.00;11.07;;;5.00;99.90;;;;;;5113992;28;20176;-57
2022/03/01 05:11:43;;;;;;;12.93;11.25;;;5.00;99.90;;;;;;5114269;28;20191;-57
2022/03/01 05:14:09;;;;;;;15.23;11.57;;;5.00;99.90;;;;;;5114166;28;20181;-56
2022/03/01 05:16:35;;;;;;;15.85;11.07;;;5.10;99.90;;;;;;5114128;28;20187;-57
2022/03/01 05:19:00;;;;;;;15.95;11.27;;;5.10;99.90;;;;;;5113996;28;20337;-57
2022/03/01 05:21:28;;;;;;;16.25;11.20;;;5.20;99.90;;;;;;5113923;28;20204;-58
2022/03/01 05:23:54;;;;;;;15.88;10.55;;;5.20;99.90;;;;;;5113766;28;20177;-57
2022/03/01 05:26:19;;;;;;;14.25;11.40;;;5.20;99.90;;;;;;5113983;28;20177;-57
2022/03/01 05:28:45;;;;;;;14.75;11.57;;;5.10;99.90;;;;;;5112612;28;20188;-57
2022/03/01 05:31:10;;;;;;;15.20;10.65;;;5.20;99.90;;;;;;5113858;28;20173;-57
2022/03/01 05:33:36;;;;;;;18.33;11.40;;;5.20;99.90;;;;;;5113721;28;20201;-58
2022/03/01 05:36:02;;;;;;;16.52;11.55;;;5.20;99.90;;;;;;5112551;28;20208;-56
2022/03/01 05:38:28;;;;;;;14.57;10.77;;;5.20;99.90;;;;;;5113530;28;20180;-58
2022/03/01 05:40:54;;;;;;;16.00;11.35;;;5.20;99.90;;;;;;5113806;28;20176;-57
2022/03/01 05:43:19;;;;;;;15.25;11.10;;;5.20;99.90;;;;;;5113631;28;20581;-58
2022/03/01 05:45:45;;;;;;;16.52;11.50;;;5.30;99.90;;;;;;5113281;28;20532;-59
2022/03/01 05:48:11;;;;;;;15.25;10.70;;;5.30;99.90;;;;;;5113721;28;20225;-57
2022/03/01 05:50:36;;;;;;;15.60;10.43;;;5.20;99.90;;;;;;5113456;28;20180;-58
2022/03/01 05:53:02;;;;;;;38.20;24.23;;;5.20;99.90;;;;;;5113426;28;20183;-58
2022/03/01 05:55:28;;;;;;;22.23;13.02;;;5.20;99.90;;;;;;5113770;28;20316;-58
2022/03/01 05:57:54;;;;;;;18.23;10.95;;;5.30;99.90;;;;;;5113545;28;20630;-58
2022/03/01 06:00:20;;;;;;;18.45;11.57;;;5.20;99.90;;;;;;5113715;28;20191;-57
2022/03/01 06:02:48;;;;;;;15.93;10.40;;;5.10;99.90;;;;;;5112142;28;20212;-57
2022/03/01 06:05:15;;;;;;;16.75;10.18;;;5.10;99.90;;;;;;5113323;28;20261;-58
2022/03/01 06:07:41;;;;;;;16.15;10.88;;;5.20;99.90;;;;;;5112900;28;20184;-58
2022/03/01 06:10:07;;;;;;;15.52;10.43;;;5.10;99.90;;;;;;5113380;28;20171;-59
2022/03/01 06:12:33;;;;;;;15.98;9.82;;;5.00;99.90;;;;;;5113391;28;20225;-59
2022/03/01 06:14:59;;;;;;;16.90;10.05;;;5.00;99.90;;;;;;5113354;28;20177;-58
2022/03/01 06:17:24;;;;;;;16.75;10.43;;;4.90;99.90;;;;;;5113337;28;20630;-59
2022/03/01 06:19:50;;;;;;;14.45;9.70;;;4.90;99.90;;;;;;5112020;28;20684;-58
2022/03/01 06:22:16;;;;;;;17.85;10.38;;;4.90;99.90;;;;;;5112574;28;20287;-58
2022/03/01 06:24:42;;;;;;;16.10;10.25;;;4.90;99.90;;;;;;5111523;28;20187;-58
2022/03/01 06:27:09;;;;;;;16.02;10.48;;;5.00;99.90;;;;;;5113179;28;20173;-58
2022/03/01 06:29:35;;;;;;;18.05;10.27;;;5.00;99.90;;;;;;5113368;28;20174;-58
2022/03/01 06:32:01;;;;;;;14.55;10.23;;;5.10;99.90;;;;;;5113145;28;20195;-58
2022/03/01 06:34:27;;;;;;;13.27;9.93;;;5.10;99.90;;;;;;5113197;28;20177;-59
2022/03/01 06:36:53;;;;;;;17.08;10.60;;;5.10;99.90;;;;;;5112996;28;20542;-58
2022/03/01 06:39:18;;;;;;;16.00;10.75;;;5.10;99.90;;;;;;5113302;28;20211;-58
2022/03/01 06:41:44;;;;;;;15.63;10.20;;;5.10;99.90;;;;;;5113197;28;20200;-58
2022/03/01 06:44:10;;;;;;;16.13;10.68;;;5.10;99.90;;;;;;5113158;28;20184;-58
2022/03/01 06:46:35;;;;;;;16.55;9.85;;;5.20;99.90;;;;;;5113126;28;20316;-59
2022/03/01 06:49:01;;;;;;;19.88;10.85;;;5.20;99.90;;;;;;5113086;28;20177;-58
2022/03/01 06:51:27;;;;;;;19.08;10.80;;;5.20;99.90;;;;;;5112863;28;20256;-58
2022/03/01 06:53:54;;;;;;;16.67;10.63;;;5.20;99.90;;;;;;5113464;28;20180;-59
2022/03/01 06:56:19;;;;;;;16.10;10.77;;;5.20;99.90;;;;;;5113116;28;20297;-58
2022/03/01 06:58:46;;;;;;;15.98;11.05;;;5.20;99.90;;;;;;5116411;28;20201;-58
2022/03/01 07:01:12;;;;;;;14.65;10.20;;;5.30;99.90;;;;;;5116592;28;20180;-58
2022/03/01 07:03:39;;;;;;;18.85;12.02;;;5.20;99.90;;;;;;5116496;28;20259;-58
2022/03/01 07:06:05;;;;;;;14.73;11.32;;;5.30;99.90;;;;;;5116357;28;21198;-58
2022/03/01 07:08:31;;;;;;;15.45;11.52;;;5.30;99.90;;;;;;5116565;28;20264;-58
2022/03/01 07:10:58;;;;;;;14.77;10.75;;;5.30;99.90;;;;;;5116479;28;20264;-58
2022/03/01 07:13:23;;;;;;;13.23;10.20;;;5.30;99.90;;;;;;5115241;28;20220;-58
2022/03/01 07:15:49;;;;;;;15.15;10.60;;;5.30;99.90;;;;;;5116353;28;20599;-58
2022/03/01 07:18:15;;;;;;;14.57;10.40;;;5.30;99.90;;;;;;5116173;28;20652;-58
2022/03/01 07:20:40;;;;;;;12.43;9.60;;;5.30;99.90;;;;;;5114981;28;20188;-58
2022/03/01 07:23:07;;;;;;;16.13;10.35;;;5.30;99.90;;;;;;5115175;28;20577;-58
2022/03/01 07:25:33;;;;;;;13.35;9.85;;;5.30;99.90;;;;;;5116058;28;20594;-59
2022/03/01 07:27:59;;;;;;;13.07;10.10;;;5.30;99.90;;;;;;5116163;28;20204;-58
2022/03/01 07:30:27;;;;;;;14.73;10.52;;;5.30;99.90;;;;;;5116063;27;20192;-58
2022/03/01 07:32:55;;;;;;;14.70;9.98;;;5.40;99.90;;;;;;5114677;28;20192;-58
2022/03/01 07:35:21;;;;;;;15.52;10.05;;;5.40;99.90;;;;;;5115756;28;20179;-58
2022/03/01 07:37:48;;;;;;;14.57;10.40;;;5.40;99.90;;;;;;5115936;28;20199;-59
2022/03/01 07:40:15;;;;;;;14.77;10.38;;;5.50;99.90;;;;;;5114680;28;20180;-58
2022/03/01 07:42:41;;;;;;;12.70;10.18;;;5.50;99.90;;;;;;5115823;28;20212;-57
2022/03/01 07:45:07;;;;;;;12.00;10.18;;;5.60;99.90;;;;;;5115863;28;20271;-58
2022/03/01 07:47:36;;;;;;;17.50;11.10;;;5.60;99.90;;;;;;5115398;28;20172;-59
2022/03/01 07:50:05;;;;;;;15.93;11.13;;;5.70;99.90;;;;;;5114441;28;20685;-59
2022/03/01 07:52:31;;;;;;;13.40;10.02;;;5.70;99.90;;;;;;5115847;28;20175;-58
2022/03/01 07:54:56;;;;;;;15.07;10.63;;;5.80;99.90;;;;;;5114332;28;20230;-58
2022/03/01 07:57:22;;;;;;;14.23;10.65;;;5.90;99.90;;;;;;5115500;28;20187;-58
2022/03/01 07:59:48;;;;;;;17.17;11.25;;;6.00;99.90;;;;;;5115484;28;20181;-58
2022/03/01 08:02:13;;;;;;;13.27;10.85;;;6.20;99.90;;;;;;5115255;28;20200;-58
2022/03/01 08:04:41;;;;;;;13.75;10.70;;;6.20;99.90;;;;;;5115484;28;20192;-59
2022/03/01 08:07:11;;;;;;;13.90;10.35;;;6.40;99.90;;;;;;5114159;28;20181;-58
2022/03/01 08:09:38;;;;;;;13.13;10.93;;;6.40;99.90;;;;;;5115153;28;20218;-59
2022/03/01 08:12:05;;;;;;;13.60;10.52;;;6.60;99.90;;;;;;5115214;28;20185;-58
2022/03/01 08:14:32;;;;;;;11.32;10.23;;;6.60;99.90;;;;;;5115012;28;20180;-58
2022/03/01 08:16:59;;;;;;;14.38;10.43;;;6.80;99.90;;;;;;5115085;28;20631;-58
2022/03/01 08:19:25;;;;;;;12.80;10.48;;;6.90;99.90;;;;;;5114952;28;20189;-58
2022/03/01 08:21:51;;;;;;;14.02;10.65;;;7.00;99.90;;;;;;5115094;28;20203;-58
2022/03/01 08:24:16;;;;;;;16.02;11.20;;;7.10;99.90;;;;;;5114964;28;20264;-58
2022/03/01 08:26:42;;;;;;;12.63;10.75;;;7.20;99.90;;;;;;5114950;28;20176;-58
2022/03/01 08:29:08;;;;;;;15.23;10.48;;;7.20;99.90;;;;;;5114747;28;20177;-58
2022/03/01 08:31:35;;;;;;;12.65;10.48;;;7.20;99.90;;;;;;5115075;28;20208;-58
2022/03/01 08:34:03;;;;;;;12.68;10.63;;;7.20;99.90;;;;;;5114915;28;20165;-58
2022/03/01 08:36:29;;;;;;;17.15;10.88;;;7.20;99.90;;;;;;5114933;28;20180;-58
2022/03/01 08:38:54;;;;;;;14.90;10.98;;;7.20;99.90;;;;;;5114802;28;20548;-58
2022/03/01 08:41:20;;;;;;;16.30;10.82;;;7.10;99.90;;;;;;5114570;28;20168;-58
2022/03/01 08:43:46;;;;;;;13.50;11.32;;;7.10;99.90;;;;;;5114571;28;20184;-58
2022/03/01 08:46:13;;;;;;;15.10;10.95;;;7.20;99.90;;;;;;5114781;28;20173;-58
2022/03/01 08:48:39;;;;;;;15.27;11.27;;;7.30;99.90;;;;;;5114589;28;20177;-58
2022/03/01 08:51:05;;;;;;;13.90;10.60;;;7.30;99.90;;;;;;5114441;28;20653;-58
2022/03/01 08:53:32;;;;;;;13.85;10.90;;;7.40;99.90;;;;;;5114542;28;20181;-60
2022/03/01 08:55:58;;;;;;;14.38;11.10;;;7.40;99.90;;;;;;5114473;28;20173;-58
2022/03/01 08:58:24;;;;;;;13.95;10.95;;;7.50;99.90;;;;;;5114303;28;20209;-58
2022/03/01 09:00:51;;;;;;;13.85;11.68;;;7.30;99.90;;;;;;5114439;28;20173;-58
2022/03/01 09:03:17;;;;;;;12.05;10.70;;;7.30;99.90;;;;;;5114273;28;20200;-59
2022/03/01 09:05:43;;;;;;;13.75;11.15;;;7.30;99.90;;;;;;5114284;28;20177;-58
2022/03/01 09:08:12;;;;;;;15.45;12.10;;;7.40;99.90;;;;;;5114076;28;20200;-58
2022/03/01 09:10:39;;;;;;;19.88;11.15;;;7.50;99.90;;;;;;5112990;28;20222;-58
2022/03/01 09:13:05;;;;;;;14.88;11.68;;;7.60;99.90;;;;;;5113952;28;20174;-58
2022/03/01 09:15:32;;;;;;;14.43;11.80;;;7.70;99.90;;;;;;5114033;28;20298;-58
2022/03/01 09:18:00;;;;;;;14.20;11.38;;;7.70;99.90;;;;;;5114004;28;20242;-58
2022/03/01 09:20:26;;;;;;;15.77;12.13;;;7.70;99.90;;;;;;5113093;28;20269;-58
2022/03/01 09:22:54;;;;;;;13.73;12.05;;;7.80;99.90;;;;;;5113869;28;20218;-58
2022/03/01 09:25:20;;;;;;;15.93;11.73;;;7.80;99.90;;;;;;5113779;28;20537;-58
2022/03/01 09:27:46;;;;;;;14.88;11.73;;;7.80;99.90;;;;;;5113751;28;20181;-57
2022/03/01 09:30:12;;;;;;;15.75;11.77;;;7.90;99.90;;;;;;5114025;28;20226;-58
2022/03/01 09:32:40;;;;;;;13.00;11.27;;;7.80;99.90;;;;;;5113665;28;20516;-59
2022/03/01 09:35:06;;;;;;;14.40;11.63;;;7.90;99.90;;;;;;5113843;28;20181;-59
2022/03/01 09:37:32;;;;;;;14.35;11.95;;;7.90;99.90;;;;;;5113732;28;20177;-59
2022/03/01 09:40:04;;;;;;;14.32;11.93;;;7.90;99.90;;;;;;5113629;28;20169;-58
2022/03/01 09:42:31;;;;;;;14.23;11.68;;;7.80;99.90;;;;;;5113903;28;20200;-57
2022/03/01 09:44:58;;;;;;;13.50;11.90;;;7.90;99.90;;;;;;5113701;28;20264;-58
2022/03/01 09:47:24;;;;;;;15.18;11.82;;;7.90;99.90;;;;;;5113673;28;20252;-58
2022/03/01 09:49:50;;;;;;;16.42;12.60;;;7.90;99.90;;;;;;5114139;28;20268;-58
2022/03/01 09:52:16;;;;;;;15.85;11.73;;;8.00;99.90;;;;;;5113370;28;20202;-58
2022/03/01 09:54:43;;;;;;;14.02;11.15;;;8.00;99.90;;;;;;5113461;28;20588;-58
2022/03/01 09:57:15;;;;;;;14.43;11.50;;;8.10;99.90;;;;;;5114003;28;20177;-60
2022/03/01 09:59:41;;;;;;;15.40;11.40;;;8.10;99.90;;;;;;5113719;28;20168;-59
2022/03/01 10:02:08;;;;;;;16.70;12.18;;;8.20;99.90;;;;;;5113512;28;20196;-58
2022/03/01 10:04:38;;;;;;;16.92;11.73;;;8.20;99.90;;;;;;5113416;28;20255;-58
2022/03/01 10:07:09;;;;;;;15.93;11.20;;;8.30;99.90;;;;;;5113420;28;20166;-58
2022/03/01 10:09:40;;;;;;;13.38;11.30;;;8.40;99.90;;;;;;5113421;28;20614;-58
2022/03/01 10:12:06;;;;;;;13.88;11.57;;;8.40;99.90;;;;;;5113802;28;20170;-58
2022/03/01 10:14:33;;;;;;;15.75;11.85;;;8.40;99.90;;;;;;5113340;28;20626;-58
2022/03/01 10:17:10;;;;;;;12.93;11.50;;;8.40;99.90;;;;;;5113425;28;20256;-58
2022/03/01 10:19:36;;;;;;;13.82;11.60;;;8.40;99.90;;;;;;5113290;28;20199;-58
2022/03/01 10:22:03;;;;;;;13.52;11.25;;;8.40;99.90;;;;;;5112154;28;20287;-58
2022/03/01 10:24:30;;;;;;;12.38;11.05;;;8.40;99.90;;;;;;5113379;28;20181;-58
2022/03/01 10:26:58;;;;;;;13.35;11.95;;;8.40;99.90;;;;;;5112105;28;20233;-59
2022/03/01 10:29:29;;;;;;;13.80;12.25;;;8.40;99.90;;;;;;5113189;28;20165;-58
2022/03/01 10:32:09;;;;;;;14.60;11.93;;;8.50;99.90;;;;;;5115673;28;20219;-58
2022/03/01 10:34:35;;;;;;;13.80;12.38;;;8.50;99.90;;;;;;5117360;28;20173;-58
2022/03/01 10:37:02;;;;;;;14.93;12.75;;;8.60;99.90;;;;;;5117250;28;20169;-58
2022/03/01 10:39:33;;;;;;;19.25;13.45;;;8.60;99.90;;;;;;5117171;28;20204;-58
2022/03/01 10:42:03;;;;;;;15.30;12.57;;;8.50;99.90;;;;;;5117019;28;20201;-58
2022/03/01 10:44:30;;;;;;;16.88;13.73;;;8.40;99.90;;;;;;5115844;28;20184;-58
2022/03/01 10:47:01;;;;;;;16.15;13.73;;;8.40;99.90;;;;;;5117085;28;20161;-59
2022/03/01 10:49:31;;;;;;;17.67;14.20;;;8.50;99.90;;;;;;5117138;28;20182;-58
2022/03/01 10:51:59;;;;;;;16.33;13.75;;;8.50;99.90;;;;;;5116884;28;20180;-58
2022/03/01 10:54:40;;;;;;;16.13;13.75;;;8.50;99.90;;;;;;5116731;28;20570;-59
2022/03/01 10:57:08;;;;;;;15.98;13.60;;;8.50;99.90;;;;;;5116690;27;20169;-58
2022/03/01 10:59:37;;;;;;;16.42;14.15;;;8.50;99.90;;;;;;5116579;28;20610;-58
2022/03/01 11:02:04;;;;;;;16.38;13.02;;;8.50;99.90;;;;;;5116651;28;20280;-58
2022/03/01 11:04:30;;;;;;;15.85;14.18;;;8.50;99.90;;;;;;5116633;28;20178;-58
2022/03/01 11:06:59;;;;;;;16.55;14.65;;;8.50;99.90;;;;;;5116503;28;20245;-59
2022/03/01 11:09:28;;;;;;;25.67;20.05;;;8.60;99.90;;;;;;5116425;28;20161;-58
2022/03/01 11:11:55;;;;;;;36.10;27.40;;;8.60;99.90;;;;;;5116346;27;20224;-58
2022/03/01 11:14:35;;;;;;;24.92;21.00;;;8.60;99.90;;;;;;5116527;28;20177;-58
2022/03/01 11:17:24;;;;;;;20.08;16.63;;;8.60;99.90;;;;;;5116428;28;20173;-58
2022/03/01 11:19:54;;;;;;;18.75;15.05;;;8.60;99.90;;;;;;5116458;28;20189;-58
2022/03/01 11:22:38;;;;;;;17.85;15.20;;;8.70;99.90;;;;;;5116092;28;20189;-58
2022/03/01 11:25:04;;;;;;;16.83;13.57;;;8.80;99.90;;;;;;5116394;28;20567;-58
2022/03/01 11:27:30;;;;;;;16.30;13.50;;;8.80;99.90;;;;;;5116257;28;20188;-58
2022/03/01 11:30:08;;;;;;;20.63;17.38;;;8.90;99.90;;;;;;5116126;28;20619;-58
2022/03/01 11:32:42;;;;;;;17.50;14.55;;;9.00;99.90;;;;;;5115936;28;20203;-58
2022/03/01 11:35:20;;;;;;;21.27;16.08;;;8.90;99.90;;;;;;5116100;28;20196;-59
2022/03/01 11:37:46;;;;;;;19.58;14.65;;;9.10;99.90;;;;;;5116247;28;20221;-58
2022/03/01 11:40:23;;;;;;;19.90;16.02;;;9.40;99.90;;;;;;5115878;28;20363;-58
2022/03/01 11:42:50;;;;;;;17.02;13.80;;;9.60;99.90;;;;;;5114813;28;20251;-58
2022/03/01 11:45:16;;;;;;;16.00;13.32;;;9.70;99.90;;;;;;5115727;28;20692;-58
2022/03/01 11:47:43;;;;;;;17.25;15.10;;;9.90;99.90;;;;;;5115882;28;20176;-58
2022/03/01 11:50:20;;;;;;;16.50;13.90;;;10.10;99.90;;;;;;5115800;28;20210;-59
2022/03/01 11:53:07;;;;;;;15.10;12.95;;;10.20;99.90;;;;;;5115739;27;20177;-58
2022/03/01 11:55:56;;;;;;;14.85;12.80;;;10.30;99.90;;;;;;5115516;28;20177;-58
2022/03/01 11:58:23;;;;;;;15.38;13.50;;;10.30;99.90;;;;;;5115646;28;20191;-58
2022/03/01 12:00:49;;;;;;;16.58;12.75;;;10.40;99.90;;;;;;5115506;28;20183;-58
2022/03/01 12:03:17;;;;;;;15.93;12.98;;;10.50;99.90;;;;;;5115398;28;20199;-59
2022/03/01 12:05:48;;;;;;;15.48;13.00;;;10.50;99.90;;;;;;5115341;28;20542;-59
2022/03/01 12:08:15;;;;;;;14.50;13.00;;;10.60;99.90;;;;;;5115251;28;20696;-59
2022/03/01 12:11:11;;;;;;;16.48;13.88;;;10.60;99.90;;;;;;5115330;27;20165;-58
2022/03/01 12:13:45;;;;;;;16.80;15.00;;;10.60;99.90;;;;;;5102126;28;20260;-58
2022/03/01 12:16:14;;;;;;;16.40;13.55;;;10.50;99.90;;;;;;5115125;28;20172;-59
2022/03/01 12:18:41;;;;;;;21.17;15.13;;;10.60;99.90;;;;;;5114860;28;20170;-58
2022/03/01 12:21:08;;;;;;;17.88;14.13;;;10.60;99.90;;;;;;5115302;28;20169;-58
2022/03/01 12:23:37;;;;;;;21.02;16.50;;;10.60;99.90;;;;;;5114956;28;20212;-59
2022/03/01 12:26:05;;;;;;;18.45;15.50;;;10.60;99.90;;;;;;5115008;28;20176;-58
2022/03/01 12:28:51;;;;;;;16.75;13.98;;;10.60;99.90;;;;;;5114990;28;20197;-58
2022/03/01 12:31:20;;;;;;;22.92;17.08;;;10.60;99.90;;;;;;5115134;28;20634;-58
2022/03/01 12:33:59;;;;;;;18.92;16.10;;;10.60;99.90;;;;;;5113662;28;20546;-58